Terminal Aerodrome Forecast
Issued by NWS Atlanta, GA

Home | Current Version | Previous Version | Text Only | Print | Product List | Glossary On
Versions: 1 2 3 4 5 6 7 8 9 10 11 12 13 14 15 16 17 18 19 20 21 22 23 24 25 26 27 28 29 30 31 32 33 34 35 36 37 38 39
539
FTUS42 KFFC 251737
TAFATL
TAF
KATL 251737Z 2518/2624 28005KT P6SM FEW030 BKN100
      TEMPO 2520/2523 4SM -TSRA BKN030CB
     FM252300 29007KT P6SM SCT030 BKN250
     FM260600 31005KT P6SM SCT250
     FM261200 03005KT P6SM SCT250
     FM261600 06006KT P6SM BKN250 PROB30 2620/2623 P6SM TS BKN050CB=

USA.gov is the U.S. government's official web portal to all federal, state and local government web resources and services.